sensor_id;sensor_type;location;lat;lon;timestamp;P1;durP1;ratioP1;P2;durP2;ratioP2
17864;SDS011;9058;52.018;4.202;2023-04-01T00:00:52;208.10;;;19.17;;
17864;SDS011;9058;52.018;4.202;2023-04-01T00:03:18;148.02;;;16.00;;
17864;SDS011;9058;52.018;4.202;2023-04-01T00:05:45;182.27;;;18.65;;
17864;SDS011;9058;52.018;4.202;2023-04-01T00:08:11;185.57;;;18.80;;
17864;SDS011;9058;52.018;4.202;2023-04-01T00:10:38;161.13;;;17.48;;
17864;SDS011;9058;52.018;4.202;2023-04-01T00:13:07;154.23;;;18.35;;
17864;SDS011;9058;52.018;4.202;2023-04-01T00:15:34;151.35;;;15.98;;
17864;SDS011;9058;52.018;4.202;2023-04-01T00:18:00;159.07;;;16.15;;
17864;SDS011;9058;52.018;4.202;2023-04-01T00:20:27;136.75;;;17.60;;
17864;SDS011;9058;52.018;4.202;2023-04-01T00:22:53;166.23;;;18.90;;
17864;SDS011;9058;52.018;4.202;2023-04-01T00:25:20;178.25;;;20.27;;
17864;SDS011;9058;52.018;4.202;2023-04-01T00:27:46;143.75;;;16.52;;
17864;SDS011;9058;52.018;4.202;2023-04-01T00:30:16;116.07;;;13.75;;
17864;SDS011;9058;52.018;4.202;2023-04-01T00:32:43;173.05;;;18.20;;
17864;SDS011;9058;52.018;4.202;2023-04-01T00:35:11;158.50;;;18.52;;
17864;SDS011;9058;52.018;4.202;2023-04-01T00:37:38;157.52;;;17.50;;
17864;SDS011;9058;52.018;4.202;2023-04-01T00:40:06;151.30;;;18.63;;
17864;SDS011;9058;52.018;4.202;2023-04-01T00:42:34;168.70;;;19.60;;
17864;SDS011;9058;52.018;4.202;2023-04-01T00:47:44;149.30;;;18.77;;
17864;SDS011;9058;52.018;4.202;2023-04-01T00:50:10;160.98;;;19.20;;
17864;SDS011;9058;52.018;4.202;2023-04-01T00:52:37;142.52;;;17.35;;
17864;SDS011;9058;52.018;4.202;2023-04-01T00:55:03;124.43;;;16.20;;
17864;SDS011;9058;52.018;4.202;2023-04-01T00:57:32;130.10;;;19.13;;
17864;SDS011;9058;52.018;4.202;2023-04-01T01:00:02;124.22;;;18.02;;
17864;SDS011;9058;52.018;4.202;2023-04-01T01:02:32;91.55;;;15.82;;
17864;SDS011;9058;52.018;4.202;2023-04-01T01:05:00;127.50;;;17.85;;
17864;SDS011;9058;52.018;4.202;2023-04-01T01:07:27;103.00;;;16.80;;
17864;SDS011;9058;52.018;4.202;2023-04-01T01:09:57;108.40;;;18.98;;
17864;SDS011;9058;52.018;4.202;2023-04-01T01:12:25;65.50;;;14.90;;
17864;SDS011;9058;52.018;4.202;2023-04-01T01:14:59;77.88;;;12.18;;
17864;SDS011;9058;52.018;4.202;2023-04-01T01:17:32;75.80;;;11.70;;
17864;SDS011;9058;52.018;4.202;2023-04-01T01:20:18;59.28;;;12.95;;
17864;SDS011;9058;52.018;4.202;2023-04-01T01:22:51;60.90;;;11.63;;
17864;SDS011;9058;52.018;4.202;2023-04-01T01:25:25;62.40;;;12.25;;
17864;SDS011;9058;52.018;4.202;2023-04-01T01:27:57;52.45;;;9.40;;
17864;SDS011;9058;52.018;4.202;2023-04-01T01:30:35;46.95;;;9.77;;
17864;SDS011;9058;52.018;4.202;2023-04-01T01:33:13;50.08;;;10.35;;
17864;SDS011;9058;52.018;4.202;2023-04-01T01:35:45;58.05;;;10.07;;
17864;SDS011;9058;52.018;4.202;2023-04-01T01:38:14;50.55;;;10.25;;
17864;SDS011;9058;52.018;4.202;2023-04-01T01:40:42;37.42;;;8.95;;
17864;SDS011;9058;52.018;4.202;2023-04-01T01:43:11;46.20;;;10.57;;
17864;SDS011;9058;52.018;4.202;2023-04-01T01:45:40;50.53;;;11.02;;
17864;SDS011;9058;52.018;4.202;2023-04-01T01:48:10;50.53;;;10.88;;
17864;SDS011;9058;52.018;4.202;2023-04-01T01:50:37;34.50;;;7.38;;
17864;SDS011;9058;52.018;4.202;2023-04-01T01:53:09;49.45;;;10.25;;
17864;SDS011;9058;52.018;4.202;2023-04-01T01:55:36;30.85;;;7.40;;
17864;SDS011;9058;52.018;4.202;2023-04-01T01:58:05;31.92;;;6.93;;
17864;SDS011;9058;52.018;4.202;2023-04-01T02:00:33;28.27;;;6.75;;
17864;SDS011;9058;52.018;4.202;2023-04-01T02:03:00;23.48;;;5.53;;
17864;SDS011;9058;52.018;4.202;2023-04-01T02:05:27;24.80;;;5.72;;
17864;SDS011;9058;52.018;4.202;2023-04-01T02:07:57;24.55;;;6.05;;
17864;SDS011;9058;52.018;4.202;2023-04-01T02:10:28;18.25;;;5.65;;
17864;SDS011;9058;52.018;4.202;2023-04-01T02:12:57;13.57;;;5.10;;
17864;SDS011;9058;52.018;4.202;2023-04-01T02:15:26;16.92;;;5.35;;
17864;SDS011;9058;52.018;4.202;2023-04-01T02:17:55;16.30;;;5.00;;
17864;SDS011;9058;52.018;4.202;2023-04-01T02:20:22;24.73;;;6.75;;
17864;SDS011;9058;52.018;4.202;2023-04-01T02:22:51;18.60;;;6.25;;
17864;SDS011;9058;52.018;4.202;2023-04-01T02:25:18;20.48;;;7.05;;
17864;SDS011;9058;52.018;4.202;2023-04-01T02:27:48;28.55;;;7.93;;
17864;SDS011;9058;52.018;4.202;2023-04-01T02:30:16;38.17;;;9.15;;
17864;SDS011;9058;52.018;4.202;2023-04-01T02:32:43;42.13;;;11.32;;
17864;SDS011;9058;52.018;4.202;2023-04-01T02:35:12;48.05;;;10.25;;
17864;SDS011;9058;52.018;4.202;2023-04-01T02:37:40;57.33;;;12.27;;
17864;SDS011;9058;52.018;4.202;2023-04-01T02:40:09;53.50;;;11.38;;
17864;SDS011;9058;52.018;4.202;2023-04-01T02:42:37;60.85;;;13.40;;
17864;SDS011;9058;52.018;4.202;2023-04-01T02:45:05;68.97;;;13.30;;
17864;SDS011;9058;52.018;4.202;2023-04-01T02:47:32;84.40;;;16.70;;
17864;SDS011;9058;52.018;4.202;2023-04-01T02:49:59;77.20;;;16.27;;
17864;SDS011;9058;52.018;4.202;2023-04-01T02:52:25;86.07;;;18.23;;
17864;SDS011;9058;52.018;4.202;2023-04-01T02:54:51;115.63;;;18.73;;
17864;SDS011;9058;52.018;4.202;2023-04-01T02:57:18;115.03;;;19.13;;
17864;SDS011;9058;52.018;4.202;2023-04-01T02:59:45;125.25;;;21.60;;
17864;SDS011;9058;52.018;4.202;2023-04-01T03:02:12;116.28;;;20.15;;
17864;SDS011;9058;52.018;4.202;2023-04-01T03:04:39;99.13;;;18.30;;
17864;SDS011;9058;52.018;4.202;2023-04-01T03:07:06;100.03;;;20.45;;
17864;SDS011;9058;52.018;4.202;2023-04-01T03:09:35;119.68;;;18.75;;
17864;SDS011;9058;52.018;4.202;2023-04-01T03:12:01;130.75;;;20.73;;
17864;SDS011;9058;52.018;4.202;2023-04-01T03:14:28;127.38;;;19.15;;
17864;SDS011;9058;52.018;4.202;2023-04-01T03:16:54;103.13;;;17.88;;
17864;SDS011;9058;52.018;4.202;2023-04-01T03:19:23;140.70;;;20.20;;
17864;SDS011;9058;52.018;4.202;2023-04-01T03:21:49;123.45;;;19.75;;
17864;SDS011;9058;52.018;4.202;2023-04-01T03:24:16;138.60;;;21.38;;
17864;SDS011;9058;52.018;4.202;2023-04-01T03:26:42;135.63;;;20.55;;
17864;SDS011;9058;52.018;4.202;2023-04-01T03:29:08;140.52;;;22.50;;
17864;SDS011;9058;52.018;4.202;2023-04-01T03:31:35;142.70;;;24.27;;
17864;SDS011;9058;52.018;4.202;2023-04-01T03:34:01;152.73;;;23.25;;
17864;SDS011;9058;52.018;4.202;2023-04-01T03:36:29;123.60;;;22.23;;
17864;SDS011;9058;52.018;4.202;2023-04-01T03:38:55;127.95;;;22.52;;
17864;SDS011;9058;52.018;4.202;2023-04-01T03:41:22;123.60;;;23.00;;
17864;SDS011;9058;52.018;4.202;2023-04-01T03:43:48;111.50;;;21.20;;
17864;SDS011;9058;52.018;4.202;2023-04-01T03:46:16;94.07;;;20.85;;
17864;SDS011;9058;52.018;4.202;2023-04-01T03:48:43;102.05;;;21.38;;
17864;SDS011;9058;52.018;4.202;2023-04-01T03:51:10;77.30;;;17.27;;
17864;SDS011;9058;52.018;4.202;2023-04-01T03:53:38;69.00;;;17.27;;
17864;SDS011;9058;52.018;4.202;2023-04-01T03:56:05;62.08;;;15.93;;
17864;SDS011;9058;52.018;4.202;2023-04-01T03:58:32;45.40;;;14.43;;
17864;SDS011;9058;52.018;4.202;2023-04-01T04:00:59;53.08;;;14.82;;
17864;SDS011;9058;52.018;4.202;2023-04-01T04:03:26;55.70;;;14.50;;
17864;SDS011;9058;52.018;4.202;2023-04-01T04:05:53;48.25;;;14.73;;
17864;SDS011;9058;52.018;4.202;2023-04-01T04:08:21;44.05;;;12.73;;
17864;SDS011;9058;52.018;4.202;2023-04-01T04:10:51;43.10;;;15.38;;
17864;SDS011;9058;52.018;4.202;2023-04-01T04:13:33;50.28;;;13.68;;
17864;SDS011;9058;52.018;4.202;2023-04-01T04:16:00;48.78;;;13.70;;
17864;SDS011;9058;52.018;4.202;2023-04-01T04:18:27;38.75;;;13.55;;
17864;SDS011;9058;52.018;4.202;2023-04-01T04:20:53;48.42;;;13.63;;
17864;SDS011;9058;52.018;4.202;2023-04-01T04:23:20;54.03;;;14.38;;
17864;SDS011;9058;52.018;4.202;2023-04-01T04:25:55;53.33;;;15.93;;
17864;SDS011;9058;52.018;4.202;2023-04-01T04:28:22;47.83;;;15.23;;
17864;SDS011;9058;52.018;4.202;2023-04-01T04:30:49;48.22;;;13.57;;
17864;SDS011;9058;52.018;4.202;2023-04-01T04:33:16;45.63;;;13.77;;
17864;SDS011;9058;52.018;4.202;2023-04-01T04:35:43;51.53;;;14.65;;
17864;SDS011;9058;52.018;4.202;2023-04-01T04:38:10;41.85;;;13.88;;
17864;SDS011;9058;52.018;4.202;2023-04-01T04:40:37;45.40;;;13.50;;
17864;SDS011;9058;52.018;4.202;2023-04-01T04:43:06;43.22;;;13.23;;
17864;SDS011;9058;52.018;4.202;2023-04-01T04:45:33;50.35;;;14.00;;
17864;SDS011;9058;52.018;4.202;2023-04-01T04:47:59;47.00;;;13.70;;
17864;SDS011;9058;52.018;4.202;2023-04-01T04:50:26;51.22;;;14.52;;
17864;SDS011;9058;52.018;4.202;2023-04-01T04:52:52;44.20;;;13.50;;
17864;SDS011;9058;52.018;4.202;2023-04-01T04:55:19;42.92;;;13.45;;
17864;SDS011;9058;52.018;4.202;2023-04-01T04:57:46;39.33;;;14.00;;
17864;SDS011;9058;52.018;4.202;2023-04-01T05:00:14;45.38;;;14.20;;
17864;SDS011;9058;52.018;4.202;2023-04-01T05:02:41;42.67;;;14.13;;
17864;SDS011;9058;52.018;4.202;2023-04-01T05:05:07;35.20;;;12.48;;
17864;SDS011;9058;52.018;4.202;2023-04-01T05:07:35;33.88;;;12.70;;
17864;SDS011;9058;52.018;4.202;2023-04-01T05:10:03;38.25;;;14.23;;
17864;SDS011;9058;52.018;4.202;2023-04-01T05:12:29;41.03;;;12.98;;
17864;SDS011;9058;52.018;4.202;2023-04-01T05:14:57;35.20;;;10.77;;
17864;SDS011;9058;52.018;4.202;2023-04-01T05:17:27;32.20;;;11.45;;
17864;SDS011;9058;52.018;4.202;2023-04-01T05:19:53;30.98;;;11.48;;
17864;SDS011;9058;52.018;4.202;2023-04-01T05:22:19;30.05;;;11.95;;
17864;SDS011;9058;52.018;4.202;2023-04-01T05:24:46;31.77;;;10.73;;
17864;SDS011;9058;52.018;4.202;2023-04-01T05:27:12;40.38;;;12.05;;
17864;SDS011;9058;52.018;4.202;2023-04-01T05:29:38;33.83;;;11.10;;
17864;SDS011;9058;52.018;4.202;2023-04-01T05:32:05;35.88;;;13.55;;
17864;SDS011;9058;52.018;4.202;2023-04-01T05:34:33;31.75;;;11.70;;
17864;SDS011;9058;52.018;4.202;2023-04-01T05:37:00;46.10;;;13.52;;
17864;SDS011;9058;52.018;4.202;2023-04-01T05:39:26;36.53;;;12.10;;
17864;SDS011;9058;52.018;4.202;2023-04-01T05:41:53;44.40;;;13.52;;
17864;SDS011;9058;52.018;4.202;2023-04-01T05:44:20;43.03;;;13.82;;
17864;SDS011;9058;52.018;4.202;2023-04-01T05:46:46;50.47;;;15.88;;
17864;SDS011;9058;52.018;4.202;2023-04-01T05:49:13;39.67;;;14.52;;
17864;SDS011;9058;52.018;4.202;2023-04-01T05:51:41;48.05;;;15.05;;
17864;SDS011;9058;52.018;4.202;2023-04-01T05:54:07;39.83;;;14.02;;
17864;SDS011;9058;52.018;4.202;2023-04-01T05:56:34;41.65;;;12.30;;
17864;SDS011;9058;52.018;4.202;2023-04-01T05:59:00;45.80;;;14.35;;
17864;SDS011;9058;52.018;4.202;2023-04-01T06:01:26;52.20;;;14.43;;
17864;SDS011;9058;52.018;4.202;2023-04-01T06:03:53;54.78;;;12.50;;
17864;SDS011;9058;52.018;4.202;2023-04-01T06:06:20;48.17;;;15.68;;
17864;SDS011;9058;52.018;4.202;2023-04-01T06:08:50;50.67;;;15.07;;
17864;SDS011;9058;52.018;4.202;2023-04-01T06:11:19;56.58;;;17.13;;
17864;SDS011;9058;52.018;4.202;2023-04-01T06:13:57;70.22;;;16.85;;
17864;SDS011;9058;52.018;4.202;2023-04-01T06:16:32;58.00;;;17.88;;
17864;SDS011;9058;52.018;4.202;2023-04-01T06:19:05;51.30;;;16.77;;
17864;SDS011;9058;52.018;4.202;2023-04-01T06:21:50;64.25;;;18.50;;
17864;SDS011;9058;52.018;4.202;2023-04-01T06:24:27;53.72;;;16.63;;
17864;SDS011;9058;52.018;4.202;2023-04-01T06:26:57;40.10;;;13.80;;
17864;SDS011;9058;52.018;4.202;2023-04-01T06:29:36;47.38;;;15.15;;
17864;SDS011;9058;52.018;4.202;2023-04-01T06:32:15;34.88;;;13.65;;
17864;SDS011;9058;52.018;4.202;2023-04-01T06:34:48;36.05;;;14.15;;
17864;SDS011;9058;52.018;4.202;2023-04-01T06:37:22;35.10;;;12.82;;
17864;SDS011;9058;52.018;4.202;2023-04-01T06:40:01;35.17;;;15.05;;
17864;SDS011;9058;52.018;4.202;2023-04-01T06:42:38;33.00;;;12.90;;
17864;SDS011;9058;52.018;4.202;2023-04-01T06:45:10;33.50;;;11.50;;
17864;SDS011;9058;52.018;4.202;2023-04-01T06:47:43;39.55;;;12.98;;
17864;SDS011;9058;52.018;4.202;2023-04-01T06:50:16;25.50;;;9.32;;
17864;SDS011;9058;52.018;4.202;2023-04-01T06:52:48;28.70;;;9.52;;
17864;SDS011;9058;52.018;4.202;2023-04-01T06:55:21;16.38;;;7.85;;
17864;SDS011;9058;52.018;4.202;2023-04-01T06:57:50;30.65;;;10.25;;
17864;SDS011;9058;52.018;4.202;2023-04-01T07:00:19;20.80;;;8.80;;
17864;SDS011;9058;52.018;4.202;2023-04-01T07:02:48;23.98;;;10.20;;
17864;SDS011;9058;52.018;4.202;2023-04-01T07:05:18;23.25;;;10.50;;
17864;SDS011;9058;52.018;4.202;2023-04-01T07:07:46;19.90;;;8.02;;
17864;SDS011;9058;52.018;4.202;2023-04-01T07:10:15;21.40;;;8.40;;
17864;SDS011;9058;52.018;4.202;2023-04-01T07:12:46;20.33;;;7.97;;
17864;SDS011;9058;52.018;4.202;2023-04-01T07:15:16;21.35;;;8.55;;
17864;SDS011;9058;52.018;4.202;2023-04-01T07:17:43;23.90;;;9.63;;
17864;SDS011;9058;52.018;4.202;2023-04-01T07:20:12;21.23;;;9.75;;
17864;SDS011;9058;52.018;4.202;2023-04-01T07:22:41;25.35;;;10.43;;
17864;SDS011;9058;52.018;4.202;2023-04-01T07:25:11;21.98;;;8.38;;
17864;SDS011;9058;52.018;4.202;2023-04-01T07:27:38;19.98;;;8.95;;
17864;SDS011;9058;52.018;4.202;2023-04-01T07:30:12;23.13;;;9.43;;
17864;SDS011;9058;52.018;4.202;2023-04-01T07:32:40;18.63;;;7.50;;
17864;SDS011;9058;52.018;4.202;2023-04-01T07:35:12;17.08;;;7.00;;
17864;SDS011;9058;52.018;4.202;2023-04-01T07:37:42;15.18;;;6.18;;
17864;SDS011;9058;52.018;4.202;2023-04-01T07:40:15;16.30;;;7.15;;
17864;SDS011;9058;52.018;4.202;2023-04-01T07:42:50;20.13;;;10.15;;
17864;SDS011;9058;52.018;4.202;2023-04-01T07:45:22;23.20;;;9.80;;
17864;SDS011;9058;52.018;4.202;2023-04-01T07:47:54;21.95;;;9.40;;
17864;SDS011;9058;52.018;4.202;2023-04-01T07:50:25;23.95;;;10.75;;
17864;SDS011;9058;52.018;4.202;2023-04-01T07:52:54;34.55;;;10.80;;
17864;SDS011;9058;52.018;4.202;2023-04-01T07:55:25;36.80;;;12.82;;
17864;SDS011;9058;52.018;4.202;2023-04-01T07:57:56;53.78;;;14.55;;
17864;SDS011;9058;52.018;4.202;2023-04-01T08:00:28;52.15;;;13.57;;
17864;SDS011;9058;52.018;4.202;2023-04-01T08:03:03;47.08;;;12.68;;
17864;SDS011;9058;52.018;4.202;2023-04-01T08:05:33;60.50;;;15.65;;
17864;SDS011;9058;52.018;4.202;2023-04-01T08:08:04;44.95;;;14.77;;
17864;SDS011;9058;52.018;4.202;2023-04-01T08:10:35;35.88;;;13.32;;
17864;SDS011;9058;52.018;4.202;2023-04-01T08:13:05;37.83;;;14.02;;
17864;SDS011;9058;52.018;4.202;2023-04-01T08:15:38;38.70;;;13.50;;
17864;SDS011;9058;52.018;4.202;2023-04-01T08:18:10;40.47;;;14.88;;
17864;SDS011;9058;52.018;4.202;2023-04-01T08:20:39;42.80;;;15.82;;
17864;SDS011;9058;52.018;4.202;2023-04-01T08:23:11;41.53;;;12.95;;
17864;SDS011;9058;52.018;4.202;2023-04-01T08:25:39;61.28;;;14.63;;
17864;SDS011;9058;52.018;4.202;2023-04-01T08:28:09;49.40;;;14.23;;
17864;SDS011;9058;52.018;4.202;2023-04-01T08:30:41;39.08;;;12.57;;
17864;SDS011;9058;52.018;4.202;2023-04-01T08:33:10;37.40;;;13.75;;
17864;SDS011;9058;52.018;4.202;2023-04-01T08:35:40;38.72;;;12.95;;
17864;SDS011;9058;52.018;4.202;2023-04-01T08:38:10;49.20;;;13.57;;
17864;SDS011;9058;52.018;4.202;2023-04-01T08:40:43;41.55;;;14.30;;
17864;SDS011;9058;52.018;4.202;2023-04-01T08:43:11;45.05;;;14.80;;
17864;SDS011;9058;52.018;4.202;2023-04-01T08:45:45;34.35;;;12.07;;
17864;SDS011;9058;52.018;4.202;2023-04-01T08:48:19;46.42;;;14.13;;
17864;SDS011;9058;52.018;4.202;2023-04-01T08:50:54;31.25;;;13.07;;
17864;SDS011;9058;52.018;4.202;2023-04-01T08:53:27;40.13;;;12.60;;
17864;SDS011;9058;52.018;4.202;2023-04-01T08:56:03;31.85;;;11.55;;
17864;SDS011;9058;52.018;4.202;2023-04-01T08:58:33;34.90;;;12.68;;
17864;SDS011;9058;52.018;4.202;2023-04-01T09:01:10;36.05;;;12.07;;
17864;SDS011;9058;52.018;4.202;2023-04-01T09:03:44;33.65;;;11.73;;
17864;SDS011;9058;52.018;4.202;2023-04-01T09:06:25;32.15;;;12.73;;
17864;SDS011;9058;52.018;4.202;2023-04-01T09:09:01;37.28;;;12.80;;
17864;SDS011;9058;52.018;4.202;2023-04-01T09:11:34;31.33;;;12.75;;
17864;SDS011;9058;52.018;4.202;2023-04-01T09:14:07;34.67;;;12.40;;
17864;SDS011;9058;52.018;4.202;2023-04-01T09:16:44;32.83;;;12.90;;
17864;SDS011;9058;52.018;4.202;2023-04-01T09:19:20;29.50;;;12.68;;
17864;SDS011;9058;52.018;4.202;2023-04-01T09:21:52;34.53;;;13.23;;
17864;SDS011;9058;52.018;4.202;2023-04-01T09:24:31;39.17;;;12.63;;
17864;SDS011;9058;52.018;4.202;2023-04-01T09:27:02;31.55;;;13.00;;
17864;SDS011;9058;52.018;4.202;2023-04-01T09:29:34;30.20;;;12.02;;
17864;SDS011;9058;52.018;4.202;2023-04-01T09:32:18;33.25;;;12.38;;
17864;SDS011;9058;52.018;4.202;2023-04-01T09:34:52;29.50;;;11.05;;
17864;SDS011;9058;52.018;4.202;2023-04-01T09:37:21;23.63;;;10.07;;
17864;SDS011;9058;52.018;4.202;2023-04-01T09:39:55;28.27;;;10.95;;
17864;SDS011;9058;52.018;4.202;2023-04-01T09:42:29;26.98;;;10.07;;
17864;SDS011;9058;52.018;4.202;2023-04-01T09:44:58;25.60;;;9.48;;
17864;SDS011;9058;52.018;4.202;2023-04-01T09:47:31;22.83;;;9.05;;
17864;SDS011;9058;52.018;4.202;2023-04-01T09:50:06;20.48;;;8.65;;
17864;SDS011;9058;52.018;4.202;2023-04-01T09:52:41;18.75;;;8.98;;
17864;SDS011;9058;52.018;4.202;2023-04-01T09:55:16;26.38;;;9.27;;
17864;SDS011;9058;52.018;4.202;2023-04-01T10:00:45;21.05;;;8.02;;
17864;SDS011;9058;52.018;4.202;2023-04-01T10:06:08;20.38;;;8.00;;
17864;SDS011;9058;52.018;4.202;2023-04-01T10:08:43;20.10;;;7.85;;
17864;SDS011;9058;52.018;4.202;2023-04-01T10:11:28;20.10;;;7.72;;
17864;SDS011;9058;52.018;4.202;2023-04-01T10:14:07;19.55;;;7.03;;
17864;SDS011;9058;52.018;4.202;2023-04-01T10:16:48;19.45;;;7.10;;
17864;SDS011;9058;52.018;4.202;2023-04-01T10:19:39;20.75;;;7.53;;
17864;SDS011;9058;52.018;4.202;2023-04-01T10:22:15;22.67;;;8.45;;
17864;SDS011;9058;52.018;4.202;2023-04-01T10:24:51;18.80;;;8.77;;
17864;SDS011;9058;52.018;4.202;2023-04-01T10:27:28;33.40;;;10.48;;
17864;SDS011;9058;52.018;4.202;2023-04-01T10:30:14;30.02;;;12.52;;
17864;SDS011;9058;52.018;4.202;2023-04-01T10:32:55;26.27;;;10.82;;
17864;SDS011;9058;52.018;4.202;2023-04-01T10:35:41;32.30;;;12.02;;
17864;SDS011;9058;52.018;4.202;2023-04-01T10:38:28;27.95;;;10.55;;
17864;SDS011;9058;52.018;4.202;2023-04-01T10:41:11;33.22;;;11.02;;
17864;SDS011;9058;52.018;4.202;2023-04-01T10:43:53;22.40;;;10.13;;
17864;SDS011;9058;52.018;4.202;2023-04-01T10:49:26;31.00;;;10.40;;
17864;SDS011;9058;52.018;4.202;2023-04-01T10:52:04;29.63;;;10.07;;
17864;SDS011;9058;52.018;4.202;2023-04-01T10:54:44;24.40;;;9.45;;
17864;SDS011;9058;52.018;4.202;2023-04-01T10:57:18;30.10;;;9.95;;
17864;SDS011;9058;52.018;4.202;2023-04-01T11:00:03;26.85;;;10.07;;
17864;SDS011;9058;52.018;4.202;2023-04-01T11:02:46;26.00;;;9.60;;
17864;SDS011;9058;52.018;4.202;2023-04-01T11:08:15;23.50;;;9.10;;
17864;SDS011;9058;52.018;4.202;2023-04-01T11:10:57;20.60;;;9.35;;
17864;SDS011;9058;52.018;4.202;2023-04-01T11:13:42;29.48;;;10.75;;
17864;SDS011;9058;52.018;4.202;2023-04-01T11:16:21;30.50;;;10.40;;
17864;SDS011;9058;52.018;4.202;2023-04-01T11:19:04;28.45;;;11.38;;
17864;SDS011;9058;52.018;4.202;2023-04-01T11:21:41;30.95;;;12.18;;
17864;SDS011;9058;52.018;4.202;2023-04-01T11:24:17;37.13;;;12.95;;
17864;SDS011;9058;52.018;4.202;2023-04-01T11:26:52;35.90;;;14.10;;
17864;SDS011;9058;52.018;4.202;2023-04-01T11:29:28;35.78;;;12.93;;
17864;SDS011;9058;52.018;4.202;2023-04-01T11:31:58;38.33;;;12.13;;
17864;SDS011;9058;52.018;4.202;2023-04-01T11:34:32;47.55;;;13.13;;
17864;SDS011;9058;52.018;4.202;2023-04-01T11:37:03;44.13;;;12.85;;
17864;SDS011;9058;52.018;4.202;2023-04-01T11:39:33;48.10;;;13.85;;
17864;SDS011;9058;52.018;4.202;2023-04-01T11:42:13;51.97;;;12.57;;
17864;SDS011;9058;52.018;4.202;2023-04-01T11:44:43;46.78;;;12.90;;
17864;SDS011;9058;52.018;4.202;2023-04-01T11:47:19;67.13;;;15.32;;
17864;SDS011;9058;52.018;4.202;2023-04-01T11:49:52;48.47;;;14.15;;
17864;SDS011;9058;52.018;4.202;2023-04-01T11:52:24;47.53;;;13.55;;
17864;SDS011;9058;52.018;4.202;2023-04-01T11:54:56;54.42;;;15.20;;
17864;SDS011;9058;52.018;4.202;2023-04-01T11:57:41;45.88;;;14.60;;
17864;SDS011;9058;52.018;4.202;2023-04-01T12:00:24;44.28;;;14.48;;
17864;SDS011;9058;52.018;4.202;2023-04-01T12:03:00;53.72;;;14.18;;
17864;SDS011;9058;52.018;4.202;2023-04-01T12:05:34;44.03;;;13.82;;
17864;SDS011;9058;52.018;4.202;2023-04-01T12:08:06;46.38;;;14.75;;
17864;SDS011;9058;52.018;4.202;2023-04-01T12:10:38;36.78;;;14.73;;
17864;SDS011;9058;52.018;4.202;2023-04-01T12:13:09;37.72;;;13.32;;
17864;SDS011;9058;52.018;4.202;2023-04-01T12:15:48;35.67;;;13.35;;
17864;SDS011;9058;52.018;4.202;2023-04-01T12:18:20;42.38;;;14.35;;
17864;SDS011;9058;52.018;4.202;2023-04-01T12:20:54;37.30;;;13.38;;
17864;SDS011;9058;52.018;4.202;2023-04-01T12:23:28;36.58;;;13.05;;
17864;SDS011;9058;52.018;4.202;2023-04-01T12:26:06;42.47;;;15.48;;
17864;SDS011;9058;52.018;4.202;2023-04-01T12:28:40;45.17;;;17.10;;
17864;SDS011;9058;52.018;4.202;2023-04-01T12:31:13;45.85;;;15.73;;
17864;SDS011;9058;52.018;4.202;2023-04-01T12:33:49;41.30;;;15.02;;
17864;SDS011;9058;52.018;4.202;2023-04-01T12:36:19;47.47;;;17.13;;
17864;SDS011;9058;52.018;4.202;2023-04-01T12:38:57;41.17;;;14.75;;
17864;SDS011;9058;52.018;4.202;2023-04-01T12:41:29;44.05;;;14.32;;
17864;SDS011;9058;52.018;4.202;2023-04-01T12:44:05;41.35;;;14.70;;
17864;SDS011;9058;52.018;4.202;2023-04-01T12:46:38;38.50;;;13.32;;
17864;SDS011;9058;52.018;4.202;2023-04-01T12:49:12;41.92;;;13.10;;
17864;SDS011;9058;52.018;4.202;2023-04-01T12:51:45;41.88;;;14.20;;
17864;SDS011;9058;52.018;4.202;2023-04-01T12:54:20;43.20;;;15.05;;
17864;SDS011;9058;52.018;4.202;2023-04-01T12:56:53;37.47;;;13.65;;
17864;SDS011;9058;52.018;4.202;2023-04-01T12:59:26;25.05;;;9.85;;
17864;SDS011;9058;52.018;4.202;2023-04-01T13:02:01;26.08;;;10.18;;
17864;SDS011;9058;52.018;4.202;2023-04-01T13:04:39;24.70;;;10.48;;
17864;SDS011;9058;52.018;4.202;2023-04-01T13:07:18;25.10;;;9.63;;
17864;SDS011;9058;52.018;4.202;2023-04-01T13:09:51;26.67;;;9.38;;
17864;SDS011;9058;52.018;4.202;2023-04-01T13:12:24;27.00;;;10.60;;
17864;SDS011;9058;52.018;4.202;2023-04-01T13:15:01;21.48;;;10.32;;
17864;SDS011;9058;52.018;4.202;2023-04-01T13:17:31;22.70;;;9.57;;
17864;SDS011;9058;52.018;4.202;2023-04-01T13:20:03;19.70;;;9.57;;
17864;SDS011;9058;52.018;4.202;2023-04-01T13:22:38;19.17;;;7.45;;
17864;SDS011;9058;52.018;4.202;2023-04-01T13:25:10;17.20;;;7.25;;
17864;SDS011;9058;52.018;4.202;2023-04-01T13:27:43;17.85;;;7.05;;
17864;SDS011;9058;52.018;4.202;2023-04-01T13:30:19;20.85;;;7.75;;
17864;SDS011;9058;52.018;4.202;2023-04-01T13:32:48;17.65;;;6.72;;
17864;SDS011;9058;52.018;4.202;2023-04-01T13:35:20;24.23;;;7.10;;
17864;SDS011;9058;52.018;4.202;2023-04-01T13:37:52;19.75;;;7.05;;
17864;SDS011;9058;52.018;4.202;2023-04-01T13:40:25;21.67;;;8.40;;
17864;SDS011;9058;52.018;4.202;2023-04-01T13:42:53;18.25;;;7.78;;
17864;SDS011;9058;52.018;4.202;2023-04-01T13:45:26;22.13;;;7.93;;
17864;SDS011;9058;52.018;4.202;2023-04-01T13:48:07;13.93;;;6.53;;
17864;SDS011;9058;52.018;4.202;2023-04-01T13:50:51;15.43;;;7.47;;
17864;SDS011;9058;52.018;4.202;2023-04-01T13:53:27;19.70;;;7.38;;
17864;SDS011;9058;52.018;4.202;2023-04-01T13:55:55;21.40;;;7.95;;
17864;SDS011;9058;52.018;4.202;2023-04-01T13:58:38;22.45;;;6.78;;
17864;SDS011;9058;52.018;4.202;2023-04-01T14:01:12;29.10;;;8.00;;
17864;SDS011;9058;52.018;4.202;2023-04-01T14:03:42;27.90;;;8.15;;
17864;SDS011;9058;52.018;4.202;2023-04-01T14:06:19;28.80;;;8.43;;
17864;SDS011;9058;52.018;4.202;2023-04-01T14:08:53;38.22;;;8.70;;
17864;SDS011;9058;52.018;4.202;2023-04-01T14:11:22;39.10;;;10.35;;
17864;SDS011;9058;52.018;4.202;2023-04-01T14:13:56;32.28;;;7.60;;
17864;SDS011;9058;52.018;4.202;2023-04-01T14:16:30;27.58;;;7.78;;
17864;SDS011;9058;52.018;4.202;2023-04-01T14:19:03;40.95;;;9.18;;
17864;SDS011;9058;52.018;4.202;2023-04-01T14:21:35;25.83;;;8.88;;
17864;SDS011;9058;52.018;4.202;2023-04-01T14:24:09;20.40;;;7.20;;
17864;SDS011;9058;52.018;4.202;2023-04-01T14:26:54;28.98;;;8.32;;
17864;SDS011;9058;52.018;4.202;2023-04-01T14:29:24;22.27;;;6.32;;
17864;SDS011;9058;52.018;4.202;2023-04-01T14:31:59;21.80;;;6.20;;
17864;SDS011;9058;52.018;4.202;2023-04-01T14:34:32;16.98;;;5.82;;
17864;SDS011;9058;52.018;4.202;2023-04-01T14:37:09;20.30;;;6.18;;
17864;SDS011;9058;52.018;4.202;2023-04-01T14:39:56;16.52;;;4.97;;
17864;SDS011;9058;52.018;4.202;2023-04-01T14:42:35;14.45;;;5.05;;
17864;SDS011;9058;52.018;4.202;2023-04-01T14:45:16;14.05;;;5.78;;
17864;SDS011;9058;52.018;4.202;2023-04-01T14:47:48;17.05;;;5.50;;
17864;SDS011;9058;52.018;4.202;2023-04-01T14:50:17;20.20;;;6.07;;
17864;SDS011;9058;52.018;4.202;2023-04-01T14:52:45;22.95;;;6.18;;
17864;SDS011;9058;52.018;4.202;2023-04-01T14:55:19;13.48;;;5.47;;
17864;SDS011;9058;52.018;4.202;2023-04-01T14:57:57;16.95;;;5.65;;
17864;SDS011;9058;52.018;4.202;2023-04-01T15:00:24;18.88;;;5.68;;
17864;SDS011;9058;52.018;4.202;2023-04-01T15:02:54;18.75;;;5.18;;
17864;SDS011;9058;52.018;4.202;2023-04-01T15:05:27;21.05;;;5.22;;
17864;SDS011;9058;52.018;4.202;2023-04-01T15:08:00;23.20;;;5.93;;
17864;SDS011;9058;52.018;4.202;2023-04-01T15:10:32;13.10;;;4.28;;
17864;SDS011;9058;52.018;4.202;2023-04-01T15:13:05;21.23;;;5.28;;
17864;SDS011;9058;52.018;4.202;2023-04-01T15:15:38;20.40;;;5.55;;